createdAt,value
2022-10-17T00:02:20.079Z,27.33
2022-10-17T00:04:47.953Z,43.03
2022-10-17T00:07:17.824Z,21.37
2022-10-17T00:09:45.732Z,31.63
2022-10-17T00:12:13.592Z,24.60
2022-10-17T00:14:41.444Z,23.33
2022-10-17T00:17:09.375Z,24.80
2022-10-17T00:19:37.278Z,11.50
2022-10-17T00:22:05.129Z,19.67
2022-10-17T00:24:34.428Z,21.77
2022-10-17T00:27:02.285Z,20.40
2022-10-17T00:29:30.190Z,15.13
2022-10-17T00:31:58.452Z,18.90
2022-10-17T00:34:26.620Z,16.03
2022-10-17T00:36:54.512Z,22.80
2022-10-17T00:42:16.472Z,13.00
2022-10-17T00:45:16.105Z,23.53
2022-10-17T00:47:46.000Z,15.83
2022-10-17T00:50:14.887Z,17.07
2022-10-17T00:52:43.153Z,17.17
2022-10-17T00:55:15.888Z,15.13
2022-10-17T00:57:47.160Z,12.10
2022-10-17T01:00:17.159Z,11.70
2022-10-17T01:02:45.642Z,12.67
2022-10-17T01:05:14.160Z,12.50
2022-10-17T01:07:43.527Z,9.20
2022-10-17T01:10:12.467Z,13.10
2022-10-17T01:12:55.275Z,15.20
2022-10-17T01:15:35.763Z,15.23
2022-10-17T01:18:13.229Z,13.00
2022-10-17T01:21:08.196Z,14.83
2022-10-17T01:23:55.710Z,15.70
2022-10-17T01:26:31.625Z,14.13
2022-10-17T01:29:25.526Z,31.13
2022-10-17T01:32:02.251Z,12.70
2022-10-17T01:34:36.030Z,21.07
2022-10-17T01:37:10.015Z,34.40
2022-10-17T01:39:47.776Z,53.83
2022-10-17T01:42:20.917Z,50.97
2022-10-17T01:44:54.167Z,37.23
2022-10-17T01:47:28.034Z,30.57
2022-10-17T01:49:59.311Z,30.30
2022-10-17T01:52:31.319Z,29.87
2022-10-17T01:55:07.386Z,27.80
2022-10-17T01:57:39.360Z,26.37
2022-10-17T02:00:12.405Z,21.33
2022-10-17T02:02:44.818Z,36.60
2022-10-17T02:05:12.742Z,15.13
2022-10-17T02:07:42.331Z,20.70
2022-10-17T02:10:21.809Z,27.90
2022-10-17T02:12:57.630Z,21.00
2022-10-17T02:15:54.922Z,13.57
2022-10-17T02:18:42.451Z,9.73
2022-10-17T02:21:16.983Z,23.27
2022-10-17T02:23:53.644Z,26.10
2022-10-17T02:26:26.999Z,18.13
2022-10-17T02:29:08.315Z,34.97
2022-10-17T02:31:40.523Z,30.70
2022-10-17T02:34:14.110Z,21.37
2022-10-17T02:36:47.168Z,22.23
2022-10-17T02:39:16.862Z,43.17
2022-10-17T02:41:46.026Z,11.43
2022-10-17T02:44:13.876Z,24.87
2022-10-17T02:46:42.762Z,26.97
2022-10-17T02:49:19.571Z,27.87
2022-10-17T02:51:54.159Z,33.57
2022-10-17T02:54:29.607Z,31.23
2022-10-17T02:57:02.237Z,18.47
2022-10-17T03:02:06.487Z,13.43
2022-10-17T03:04:35.975Z,21.57
2022-10-17T03:07:04.048Z,20.83
2022-10-17T03:09:31.953Z,15.20
2022-10-17T03:11:59.838Z,6.50
2022-10-17T03:14:27.737Z,19.97
2022-10-17T03:16:55.610Z,27.20
2022-10-17T03:19:23.473Z,19.70
2022-10-17T03:21:52.803Z,25.13
2022-10-17T03:24:20.629Z,29.77
2022-10-17T03:26:48.513Z,28.23
2022-10-17T03:29:16.408Z,29.00
2022-10-17T03:31:44.262Z,29.93
2022-10-17T03:34:12.276Z,21.27
2022-10-17T03:36:40.173Z,26.70
2022-10-17T03:39:09.412Z,21.60
2022-10-17T03:41:37.304Z,26.33
2022-10-17T03:44:05.477Z,26.73
2022-10-17T03:46:34.397Z,21.23
2022-10-17T03:49:02.256Z,13.33
2022-10-17T03:51:30.092Z,17.97
2022-10-17T03:53:57.984Z,14.43
2022-10-17T03:56:27.819Z,13.47
2022-10-17T03:58:56.049Z,12.37
2022-10-17T04:01:23.991Z,8.33
2022-10-17T04:03:52.362Z,10.10
2022-10-17T04:06:21.334Z,9.27
2022-10-17T04:08:49.678Z,4.53
2022-10-17T04:11:20.268Z,9.50
2022-10-17T04:13:49.654Z,8.87
2022-10-17T04:16:18.894Z,11.07
2022-10-17T04:18:46.994Z,6.43
2022-10-17T04:21:14.917Z,8.03
2022-10-17T04:23:42.739Z,15.70
2022-10-17T04:26:10.657Z,19.13
2022-10-17T04:31:11.658Z,7.37
2022-10-17T04:33:39.730Z,7.53
2022-10-17T04:36:11.363Z,8.70
2022-10-17T04:38:39.743Z,16.53
2022-10-17T04:41:09.599Z,54.40
2022-10-17T04:43:39.096Z,10.00
2022-10-17T04:46:10.617Z,8.03
2022-10-17T04:48:39.155Z,19.03
2022-10-17T04:51:09.190Z,38.13
2022-10-17T04:53:39.171Z,27.03
2022-10-17T04:56:12.076Z,12.67
2022-10-17T04:58:40.477Z,14.93
2022-10-17T05:01:11.235Z,21.83
2022-10-17T05:03:39.386Z,15.07
2022-10-17T05:06:08.889Z,12.67
2022-10-17T05:08:36.775Z,12.57
2022-10-17T05:11:06.006Z,13.50
2022-10-17T05:13:34.115Z,23.80
2022-10-17T05:16:02.699Z,28.47
2022-10-17T05:18:31.955Z,21.60
2022-10-17T05:20:59.778Z,50.37
2022-10-17T05:23:27.612Z,47.40
2022-10-17T05:25:56.081Z,37.80
2022-10-17T05:28:24.024Z,46.67
2022-10-17T05:30:52.137Z,31.70
2022-10-17T05:33:20.036Z,38.77
2022-10-17T05:35:49.291Z,51.67
2022-10-17T05:38:17.133Z,27.77
2022-10-17T05:40:44.964Z,11.20
2022-10-17T05:43:12.899Z,27.47
2022-10-17T05:45:40.748Z,20.97
2022-10-17T05:48:09.103Z,7.30
2022-10-17T05:50:37.133Z,44.13
2022-10-17T05:53:06.434Z,16.83
2022-10-17T05:55:34.289Z,20.93
2022-10-17T05:58:02.408Z,19.07
2022-10-17T06:00:30.325Z,46.63
2022-10-17T06:02:58.701Z,87.67
2022-10-17T06:05:26.699Z,11.47
2022-10-17T06:07:58.181Z,36.60
2022-10-17T06:10:30.328Z,28.33
2022-10-17T06:12:58.280Z,57.47
2022-10-17T06:15:26.147Z,25.17
2022-10-17T06:17:54.081Z,51.47
2022-10-17T06:20:23.527Z,51.80
2022-10-17T06:22:51.376Z,51.27
2022-10-17T06:25:19.270Z,28.30
2022-10-17T06:27:48.571Z,20.90
2022-10-17T06:30:16.713Z,29.33
2022-10-17T06:32:44.560Z,27.83
2022-10-17T06:35:12.391Z,16.80
2022-10-17T06:37:41.362Z,35.43
2022-10-17T06:40:12.164Z,41.57
2022-10-17T06:42:40.163Z,19.27
2022-10-17T06:45:11.044Z,28.03
2022-10-17T06:47:38.921Z,34.03
2022-10-17T06:50:07.751Z,17.23
2022-10-17T06:52:36.179Z,12.87
2022-10-17T06:57:36.957Z,12.43
2022-10-17T07:00:05.941Z,9.23
2022-10-17T07:02:35.210Z,10.23
2022-10-17T07:05:04.341Z,12.13
2022-10-17T07:07:32.773Z,23.77
2022-10-17T07:10:00.684Z,13.53
2022-10-17T07:12:28.556Z,11.93
2022-10-17T07:14:56.421Z,13.53
2022-10-17T07:17:24.339Z,10.07
2022-10-17T07:19:53.575Z,9.60
2022-10-17T07:22:21.407Z,9.63
2022-10-17T07:27:18.052Z,8.83
2022-10-17T07:29:45.897Z,6.67
2022-10-17T07:32:13.958Z,8.50
2022-10-17T07:34:41.970Z,6.83
2022-10-17T07:37:11.881Z,6.63
2022-10-17T07:39:40.458Z,7.83
2022-10-17T07:42:08.920Z,9.17
2022-10-17T07:44:36.824Z,6.70
2022-10-17T07:47:04.966Z,5.45
2022-10-17T07:49:32.853Z,5.13
2022-10-17T07:52:00.740Z,6.25
2022-10-17T07:54:29.952Z,6.10
2022-10-17T07:56:57.857Z,5.63
2022-10-17T07:59:26.211Z,5.30
2022-10-17T08:01:56.615Z,6.18
2022-10-17T08:04:27.941Z,5.15
2022-10-17T08:07:11.554Z,5.15
2022-10-17T08:09:48.542Z,6.65
2022-10-17T08:12:16.840Z,7.45
2022-10-17T08:14:44.935Z,7.03
2022-10-17T08:17:12.840Z,5.35
2022-10-17T08:19:41.216Z,5.63
2022-10-17T08:22:09.804Z,5.53
2022-10-17T08:24:37.952Z,7.60
2022-10-17T08:27:12.296Z,5.57
2022-10-17T08:29:40.625Z,6.07
2022-10-17T08:32:10.439Z,6.07
2022-10-17T08:34:38.435Z,6.47
2022-10-17T08:37:06.654Z,5.15
2022-10-17T08:39:34.551Z,5.10
2022-10-17T08:42:18.517Z,4.85
2022-10-17T08:44:53.908Z,4.57
2022-10-17T08:47:28.416Z,5.40
2022-10-17T08:49:59.569Z,4.93
2022-10-17T08:52:37.692Z,5.72
2022-10-17T08:55:13.302Z,7.03
2022-10-17T08:57:42.604Z,5.68
2022-10-17T09:00:18.631Z,5.03
2022-10-17T09:02:58.565Z,5.07
2022-10-17T09:05:38.965Z,4.60
2022-10-17T09:08:15.461Z,4.53
2022-10-17T09:10:53.781Z,5.75
2022-10-17T09:16:24.811Z,5.00
2022-10-17T09:19:02.151Z,4.82
2022-10-17T09:21:38.480Z,5.05
2022-10-17T09:24:15.844Z,6.10
2022-10-17T09:26:46.869Z,5.82
2022-10-17T09:29:23.153Z,5.30
2022-10-17T09:32:00.295Z,6.40
2022-10-17T09:34:30.177Z,6.22
2022-10-17T09:37:00.487Z,6.15
2022-10-17T09:39:31.951Z,6.32
2022-10-17T09:42:02.265Z,6.90
2022-10-17T09:44:34.083Z,6.68
2022-10-17T09:47:20.091Z,7.57
2022-10-17T09:49:49.630Z,6.82
2022-10-17T09:52:26.259Z,7.13
2022-10-17T09:54:57.156Z,10.15
2022-10-17T09:57:25.562Z,7.28
2022-10-17T10:00:02.540Z,8.05
2022-10-17T10:02:33.447Z,8.07
2022-10-17T10:05:08.078Z,7.90
2022-10-17T10:07:38.943Z,7.85
2022-10-17T10:10:08.964Z,8.75
2022-10-17T10:12:40.478Z,8.73
2022-10-17T10:15:39.088Z,7.43
2022-10-17T10:21:10.132Z,8.25
2022-10-17T10:23:40.617Z,9.07
2022-10-17T10:26:28.464Z,8.18
2022-10-17T10:29:00.227Z,8.85
2022-10-17T10:31:38.936Z,8.85
2022-10-17T10:34:19.715Z,9.05
2022-10-17T10:36:52.329Z,8.48
2022-10-17T10:39:42.945Z,10.05
2022-10-17T10:42:30.592Z,9.77
2022-10-17T10:45:05.480Z,10.10
2022-10-17T10:47:35.104Z,10.00
2022-10-17T10:50:17.279Z,12.07
2022-10-17T10:52:49.432Z,12.10
2022-10-17T10:55:26.483Z,12.57
2022-10-17T10:58:01.024Z,12.90
2022-10-17T11:03:34.023Z,12.00
2022-10-17T11:06:13.264Z,12.27
2022-10-17T11:08:46.971Z,12.40
2022-10-17T11:11:23.926Z,12.00
2022-10-17T11:13:59.435Z,11.63
2022-10-17T11:16:34.034Z,10.80
2022-10-17T11:19:14.052Z,12.73
2022-10-17T11:21:48.997Z,11.25
2022-10-17T11:24:24.836Z,10.40
2022-10-17T11:27:00.240Z,9.63
2022-10-17T11:32:33.027Z,17.08
2022-10-17T11:35:06.469Z,10.57
2022-10-17T11:37:42.396Z,10.77
2022-10-17T11:40:23.471Z,10.00
2022-10-17T11:42:59.045Z,9.32
2022-10-17T11:48:28.550Z,9.30
2022-10-17T11:53:58.404Z,8.52
2022-10-17T11:56:37.994Z,8.05
2022-10-17T11:59:35.683Z,7.75
2022-10-17T12:02:11.145Z,11.00
2022-10-17T12:04:51.046Z,8.35
2022-10-17T12:07:27.573Z,7.70
2022-10-17T12:10:03.067Z,7.50
2022-10-17T12:12:33.552Z,8.05
2022-10-17T12:15:32.046Z,7.30
2022-10-17T12:18:03.047Z,7.55
2022-10-17T12:20:36.231Z,6.93
2022-10-17T12:23:22.571Z,7.32
2022-10-17T12:25:54.238Z,7.90
2022-10-17T12:28:30.574Z,7.20
2022-10-17T12:31:00.942Z,7.35
2022-10-17T12:33:35.048Z,7.88
2022-10-17T12:36:46.209Z,8.63
2022-10-17T12:39:51.404Z,7.18
2022-10-17T12:42:52.652Z,8.20
2022-10-17T12:45:51.950Z,7.45
2022-10-17T12:49:04.209Z,7.78
2022-10-17T12:52:22.425Z,7.53
2022-10-17T12:55:11.449Z,7.72
2022-10-17T12:57:45.367Z,7.53
2022-10-17T13:00:19.351Z,7.40
2022-10-17T13:02:48.996Z,7.72
2022-10-17T13:05:23.395Z,7.40
2022-10-17T13:07:53.546Z,7.15
2022-10-17T13:10:23.507Z,7.20
2022-10-17T13:12:54.237Z,6.45
2022-10-17T13:15:23.750Z,7.60
2022-10-17T13:17:59.407Z,9.82
2022-10-17T13:20:31.618Z,8.57
2022-10-17T13:23:00.804Z,8.30
2022-10-17T13:25:29.583Z,8.48
2022-10-17T13:28:13.278Z,9.10
2022-10-17T13:30:54.698Z,8.57
2022-10-17T13:33:35.384Z,9.13
2022-10-17T13:36:07.692Z,8.88
2022-10-17T13:38:40.316Z,10.65
2022-10-17T13:41:34.935Z,8.25
2022-10-17T13:44:04.963Z,10.27
2022-10-17T13:46:38.305Z,10.00
2022-10-17T13:49:13.739Z,9.77
2022-10-17T13:51:46.019Z,12.05
2022-10-17T13:54:31.011Z,9.10
2022-10-17T13:56:59.912Z,8.70
2022-10-17T13:59:33.559Z,9.45
2022-10-17T14:02:03.399Z,8.40
2022-10-17T14:04:44.801Z,10.23
2022-10-17T14:07:29.384Z,9.80
2022-10-17T14:09:59.392Z,10.75
2022-10-17T14:12:27.436Z,10.25
2022-10-17T14:15:10.279Z,9.63
2022-10-17T14:17:40.985Z,9.27
2022-10-17T14:23:21.474Z,9.43
2022-10-17T14:25:46.828Z,9.63
2022-10-17T14:28:17.074Z,9.30
2022-10-17T14:31:02.451Z,10.18
2022-10-17T14:33:33.821Z,14.43
2022-10-17T14:36:05.597Z,10.02
2022-10-17T14:38:33.632Z,9.75
2022-10-17T14:43:56.299Z,10.13
2022-10-17T14:46:24.540Z,10.63
2022-10-17T14:49:03.535Z,10.50
2022-10-17T14:51:44.684Z,10.67
2022-10-17T14:54:25.974Z,9.90
2022-10-17T14:56:56.013Z,10.47
2022-10-17T14:59:52.104Z,9.82
2022-10-17T15:02:14.566Z,9.43
2022-10-17T15:04:43.861Z,10.18
2022-10-17T15:07:15.129Z,9.80
2022-10-17T15:09:43.794Z,9.77
2022-10-17T15:12:16.816Z,9.80
2022-10-17T15:14:45.196Z,10.23
2022-10-17T15:17:15.925Z,10.30
2022-10-17T15:19:45.520Z,10.50
2022-10-17T15:22:13.357Z,10.27
2022-10-17T15:24:41.247Z,10.87
2022-10-17T15:27:16.947Z,10.57
2022-10-17T15:29:46.045Z,9.70
2022-10-17T15:32:14.797Z,8.83
2022-10-17T15:34:43.108Z,9.13
2022-10-17T15:37:18.637Z,10.93
2022-10-17T15:39:52.994Z,10.17
2022-10-17T15:42:21.889Z,10.57
2022-10-17T15:44:50.423Z,9.33
2022-10-17T15:47:26.516Z,13.37
2022-10-17T15:49:54.929Z,10.30
2022-10-17T15:52:25.215Z,10.00
2022-10-17T15:54:53.740Z,9.60
2022-10-17T15:57:23.736Z,10.37
2022-10-17T15:59:52.888Z,9.53
2022-10-17T16:02:22.505Z,9.30
2022-10-17T16:04:51.625Z,9.93
2022-10-17T16:07:20.548Z,12.47
2022-10-17T16:09:49.875Z,9.47
2022-10-17T16:12:20.281Z,10.43
2022-10-17T16:14:49.032Z,15.47
2022-10-17T16:17:18.155Z,11.23
2022-10-17T16:19:46.312Z,13.33
2022-10-17T16:22:22.695Z,12.63
2022-10-17T16:24:58.264Z,11.50
2022-10-17T16:27:26.614Z,11.13
2022-10-17T16:29:54.519Z,9.90
2022-10-17T16:32:26.710Z,11.73
2022-10-17T16:34:54.648Z,10.57
2022-10-17T16:37:22.527Z,11.07
2022-10-17T16:39:53.560Z,12.40
2022-10-17T16:45:18.717Z,10.93
2022-10-17T16:47:47.220Z,13.27
2022-10-17T16:50:15.404Z,12.63
2022-10-17T16:52:43.501Z,13.70
2022-10-17T16:55:12.918Z,11.23
2022-10-17T16:57:40.854Z,10.67
2022-10-17T17:00:11.930Z,12.57
2022-10-17T17:02:39.899Z,10.93
2022-10-17T17:05:09.094Z,10.67
2022-10-17T17:07:36.999Z,12.77
2022-10-17T17:10:05.588Z,11.07
2022-10-17T17:12:35.782Z,11.57
2022-10-17T17:15:04.743Z,10.27
2022-10-17T17:17:49.574Z,9.77
2022-10-17T17:20:19.293Z,10.90
2022-10-17T17:22:47.164Z,11.17
2022-10-17T17:25:15.065Z,11.40
2022-10-17T17:27:44.275Z,15.40
2022-10-17T17:30:12.832Z,11.43
2022-10-17T17:32:40.917Z,12.17
2022-10-17T17:35:09.709Z,10.53
2022-10-17T17:37:37.631Z,10.03
2022-10-17T17:40:06.524Z,10.03
2022-10-17T17:42:34.753Z,11.27
2022-10-17T17:45:04.543Z,10.03
2022-10-17T17:47:32.529Z,11.70
2022-10-17T17:50:00.712Z,12.07
2022-10-17T17:52:29.833Z,10.90
2022-10-17T17:54:58.047Z,11.67
2022-10-17T17:57:25.968Z,12.53
2022-10-17T17:59:53.830Z,11.33
2022-10-17T18:02:23.157Z,12.83
2022-10-17T18:04:51.051Z,12.57
2022-10-17T18:07:18.977Z,12.60
2022-10-17T18:09:46.844Z,12.33
2022-10-17T18:12:14.865Z,14.70
2022-10-17T18:14:42.722Z,18.90
2022-10-17T18:17:10.621Z,15.73
2022-10-17T18:19:40.006Z,20.17
2022-10-17T18:22:07.880Z,21.97
2022-10-17T18:24:35.820Z,21.30
2022-10-17T18:27:03.695Z,16.97
2022-10-17T18:29:32.789Z,14.40
2022-10-17T18:32:01.082Z,13.83
2022-10-17T18:34:29.327Z,14.77
2022-10-17T18:36:58.948Z,14.83
2022-10-17T18:39:26.855Z,14.23
2022-10-17T18:41:54.818Z,13.50
2022-10-17T18:44:22.844Z,12.53
2022-10-17T18:46:50.991Z,14.03
2022-10-17T18:49:20.331Z,12.53
2022-10-17T18:51:48.502Z,12.93
2022-10-17T18:54:20.604Z,12.60
2022-10-17T18:56:48.780Z,12.83
2022-10-17T18:59:17.485Z,13.77
2022-10-17T19:01:45.857Z,11.90
2022-10-17T19:04:14.352Z,14.60
2022-10-17T19:06:42.540Z,14.50
2022-10-17T19:09:12.273Z,13.37
2022-10-17T19:11:42.165Z,13.87
2022-10-17T19:14:13.437Z,12.53
2022-10-17T19:16:43.755Z,13.80
2022-10-17T19:19:13.836Z,12.77
2022-10-17T19:21:42.028Z,12.27
2022-10-17T19:24:14.356Z,14.37
2022-10-17T19:26:44.996Z,13.57
2022-10-17T19:29:15.043Z,13.90
2022-10-17T19:31:43.431Z,14.80
2022-10-17T19:34:12.109Z,15.27
2022-10-17T19:36:40.408Z,13.67
2022-10-17T19:39:11.930Z,11.60
2022-10-17T19:41:41.096Z,10.27
2022-10-17T19:44:11.156Z,12.17
2022-10-17T19:46:39.809Z,10.93
2022-10-17T19:49:08.665Z,12.03
2022-10-17T19:51:36.591Z,12.97
2022-10-17T19:54:04.836Z,13.33
2022-10-17T19:56:37.658Z,13.87
2022-10-17T19:59:06.692Z,13.37
2022-10-17T20:01:38.872Z,14.27
2022-10-17T20:04:07.073Z,14.90
2022-10-17T20:06:35.698Z,17.63
2022-10-17T20:09:03.795Z,14.30
2022-10-17T20:11:31.876Z,12.10
2022-10-17T20:14:03.263Z,12.43
2022-10-17T20:16:32.915Z,12.53
2022-10-17T20:19:06.519Z,14.30
2022-10-17T20:21:39.670Z,12.13
2022-10-17T20:24:09.290Z,12.30
2022-10-17T20:26:38.969Z,12.30
2022-10-17T20:29:11.258Z,11.73
2022-10-17T20:31:39.841Z,11.50
2022-10-17T20:34:10.909Z,11.47
2022-10-17T20:36:38.797Z,11.37
2022-10-17T20:39:07.827Z,10.70
2022-10-17T20:41:36.173Z,11.80
2022-10-17T20:44:06.838Z,10.23
2022-10-17T20:46:37.810Z,13.40
2022-10-17T20:49:15.952Z,15.23
2022-10-17T20:51:44.141Z,14.43
2022-10-17T20:54:12.783Z,14.77
2022-10-17T20:56:40.904Z,15.47
2022-10-17T20:59:13.119Z,14.47
2022-10-17T21:01:41.092Z,17.97
2022-10-17T21:04:40.647Z,15.27
2022-10-17T21:06:58.530Z,16.10
2022-10-17T21:09:26.811Z,16.80
2022-10-17T21:11:56.045Z,15.20
2022-10-17T21:14:25.116Z,13.03
2022-10-17T21:16:53.226Z,11.37
2022-10-17T21:19:26.358Z,11.57
2022-10-17T21:21:54.233Z,11.90
2022-10-17T21:24:22.092Z,11.37
2022-10-17T21:26:55.516Z,12.00
2022-10-17T21:29:24.972Z,11.03
2022-10-17T21:31:53.771Z,10.60
2022-10-17T21:34:25.191Z,9.50
2022-10-17T21:36:53.744Z,9.07
2022-10-17T21:39:22.957Z,9.53
2022-10-17T21:41:50.963Z,9.30
2022-10-17T21:44:21.083Z,10.43
2022-10-17T21:46:49.483Z,14.80
2022-10-17T21:49:19.611Z,11.30
2022-10-17T21:51:49.652Z,14.13
2022-10-17T21:54:19.185Z,10.23
2022-10-17T21:56:47.238Z,10.00
2022-10-17T21:59:15.159Z,9.60
2022-10-17T22:01:45.046Z,10.83
2022-10-17T22:04:15.094Z,11.17
2022-10-17T22:06:44.295Z,9.77
2022-10-17T22:09:17.004Z,9.67
2022-10-17T22:11:47.003Z,10.73
2022-10-17T22:14:16.795Z,9.27
2022-10-17T22:16:46.469Z,10.53
2022-10-17T22:19:17.999Z,9.90
2022-10-17T22:21:46.238Z,11.07
2022-10-17T22:24:17.123Z,11.83
2022-10-17T22:26:46.100Z,13.47
2022-10-17T22:29:14.551Z,11.37
2022-10-17T22:31:42.657Z,10.73
2022-10-17T22:34:13.478Z,13.03
2022-10-17T22:36:41.742Z,12.43
2022-10-17T22:39:10.750Z,12.57
2022-10-17T22:41:40.083Z,15.43
2022-10-17T22:44:08.313Z,15.47
2022-10-17T22:46:36.471Z,26.27
2022-10-17T22:49:04.655Z,22.07
2022-10-17T22:51:32.622Z,23.27
2022-10-17T22:54:00.756Z,23.30
2022-10-17T22:56:28.664Z,22.70
2022-10-17T22:58:57.958Z,17.20
2022-10-17T23:01:27.052Z,17.20
2022-10-17T23:03:55.238Z,20.27
2022-10-17T23:06:23.120Z,16.90
2022-10-17T23:08:51.289Z,18.10
2022-10-17T23:11:20.846Z,15.23
2022-10-17T23:13:48.880Z,16.63
2022-10-17T23:16:18.320Z,15.83
2022-10-17T23:18:46.241Z,15.57
2022-10-17T23:21:14.020Z,11.57
2022-10-17T23:23:41.742Z,11.00
2022-10-17T23:26:11.451Z,13.33
2022-10-17T23:28:39.941Z,14.33
2022-10-17T23:31:13.167Z,19.13
2022-10-17T23:33:42.782Z,35.73
2022-10-17T23:36:11.434Z,41.67
2022-10-17T23:38:39.487Z,28.67
2022-10-17T23:41:07.353Z,35.17
2022-10-17T23:43:35.183Z,48.30
2022-10-17T23:46:03.292Z,33.50
2022-10-17T23:48:31.470Z,33.00
2022-10-17T23:51:00.816Z,50.90
2022-10-17T23:53:28.543Z,51.97
2022-10-17T23:55:56.289Z,56.47
2022-10-17T23:58:24.024Z,63.07
